Time;durP1;ratioP1;P1;durP2;ratioP2;P2;SDS_P1;SDS_P2;PMS_P1;PMS_P2;Temp;Humidity;BMP_temperature;BMP_pressure;BME280_temperature;BME280_humidity;BME280_pressure;Samples;Min_cycle;Max_cycle;Signal;HPM_P1;HPM_P2
2021/06/11 00:00:42;;;;;;;6.60;3.70;;;21.10;60.00;;;;;;5012052;28;20511;-67
2021/06/11 00:03:07;;;;;;;7.25;3.55;;;21.10;59.70;;;;;;5011704;28;20041;-68
2021/06/11 00:05:33;;;;;;;7.07;3.30;;;21.10;59.70;;;;;;5010785;28;20026;-65
2021/06/11 00:07:59;;;;;;;6.03;3.22;;;21.10;60.30;;;;;;5011520;28;20033;-65
2021/06/11 00:10:25;;;;;;;7.82;3.30;;;21.10;60.40;;;;;;5011915;28;20037;-67
2021/06/11 00:12:50;;;;;;;6.68;3.63;;;21.10;60.50;;;;;;5011612;28;20026;-66
2021/06/11 00:15:16;;;;;;;6.43;3.10;;;21.10;60.90;;;;;;5011974;28;20369;-65
2021/06/11 00:17:42;;;;;;;6.97;3.28;;;21.10;61.50;;;;;;5010693;28;20448;-66
2021/06/11 00:20:08;;;;;;;6.90;3.58;;;21.10;61.90;;;;;;5010584;28;20468;-65
2021/06/11 00:22:37;;;;;;;5.65;3.45;;;21.00;62.30;;;;;;5011502;28;20025;-66
2021/06/11 00:25:07;;;;;;;5.60;3.35;;;21.10;62.30;;;;;;5010660;28;20018;-65
2021/06/11 00:27:33;;;;;;;5.55;3.20;;;21.10;62.90;;;;;;5011722;28;20068;-68
2021/06/11 00:29:58;;;;;;;5.88;3.13;;;21.10;63.50;;;;;;5011832;28;20046;-66
2021/06/11 00:32:24;;;;;;;6.07;3.55;;;21.10;63.90;;;;;;5010414;28;20547;-64
2021/06/11 00:34:50;;;;;;;6.90;3.90;;;21.00;63.80;;;;;;5010157;28;20036;-66
2021/06/11 00:37:15;;;;;;;6.25;3.83;;;20.80;64.90;;;;;;5011753;28;20022;-65
2021/06/11 00:39:41;;;;;;;6.20;4.03;;;20.70;65.50;;;;;;5010424;28;20024;-66
2021/06/11 00:42:07;;;;;;;7.10;4.22;;;20.60;65.80;;;;;;5010448;28;20402;-65
2021/06/11 00:44:32;;;;;;;7.32;4.63;;;20.70;65.60;;;;;;5011259;28;20033;-66
2021/06/11 00:46:58;;;;;;;8.45;4.90;;;20.60;65.80;;;;;;5011602;28;20097;-69
2021/06/11 00:49:23;;;;;;;6.97;4.43;;;20.60;66.80;;;;;;5011487;28;20649;-65
2021/06/11 00:51:49;;;;;;;7.45;4.25;;;20.50;66.90;;;;;;5014462;28;20029;-66
2021/06/11 00:54:15;;;;;;;8.15;4.45;;;20.50;67.40;;;;;;5015050;28;20037;-65
2021/06/11 00:56:41;;;;;;;7.40;4.32;;;20.50;67.40;;;;;;5015308;28;20417;-66
2021/06/11 00:59:07;;;;;;;8.40;4.30;;;20.50;67.20;;;;;;5015312;28;20026;-65
2021/06/11 01:01:33;;;;;;;7.78;4.00;;;20.40;67.90;;;;;;5014541;28;20478;-65
2021/06/11 01:03:58;;;;;;;8.38;4.40;;;20.30;68.00;;;;;;5014063;28;20034;-65
2021/06/11 01:06:26;;;;;;;9.23;4.60;;;20.10;68.50;;;;;;5014604;28;20034;-65
2021/06/11 01:08:53;;;;;;;8.90;4.85;;;19.90;69.30;;;;;;5012374;28;20044;-66
2021/06/11 01:11:20;;;;;;;7.93;4.40;;;19.70;70.10;;;;;;5013227;28;20033;-66
2021/06/11 01:13:45;;;;;;;7.07;4.55;;;19.80;70.20;;;;;;5012675;28;20026;-64
2021/06/11 01:16:11;;;;;;;8.68;5.00;;;19.90;69.80;;;;;;5014021;28;20038;-66
2021/06/11 01:18:37;;;;;;;9.20;4.55;;;20.10;69.10;;;;;;5014312;28;20096;-66
2021/06/11 01:21:03;;;;;;;6.70;3.90;;;20.30;68.70;;;;;;5014177;28;20028;-66
2021/06/11 01:23:40;;;;;;;7.78;4.18;;;20.40;68.00;;;;;;5012193;28;20029;-67
2021/06/11 01:26:21;;;;;;;9.25;4.68;;;20.50;67.80;;;;;;5012961;28;20550;-66
2021/06/11 01:28:48;;;;;;;7.63;4.50;;;20.40;68.00;;;;;;5014163;28;20092;-67
2021/06/11 01:31:15;;;;;;;10.77;4.38;;;20.40;68.40;;;;;;5013731;28;20112;-66
2021/06/11 01:33:41;;;;;;;7.30;3.97;;;20.40;68.70;;;;;;5013677;28;20022;-66
2021/06/11 01:36:10;;;;;;;8.27;4.30;;;20.40;68.70;;;;;;5014058;28;20054;-67
2021/06/11 01:38:40;;;;;;;7.40;4.15;;;20.40;68.90;;;;;;5013637;28;20395;-66
2021/06/11 01:41:09;;;;;;;7.38;4.10;;;20.40;69.40;;;;;;5012416;28;20491;-66
2021/06/11 01:43:36;;;;;;;6.97;3.92;;;20.50;69.10;;;;;;5012936;28;20261;-66
2021/06/11 01:46:01;;;;;;;8.05;4.95;;;20.50;69.40;;;;;;5010991;28;20026;-68
2021/06/11 01:48:28;;;;;;;7.50;4.13;;;20.50;69.10;;;;;;5012600;28;20034;-65
2021/06/11 01:50:56;;;;;;;6.95;4.43;;;20.50;68.70;;;;;;5011377;28;20025;-68
2021/06/11 01:53:22;;;;;;;7.55;4.57;;;20.50;68.70;;;;;;5011724;28;20495;-69
2021/06/11 01:55:49;;;;;;;8.75;5.28;;;20.60;68.70;;;;;;5012517;28;20471;-65
2021/06/11 01:58:16;;;;;;;7.93;4.53;;;20.60;68.20;;;;;;5012611;28;20030;-66
2021/06/11 02:00:43;;;;;;;8.13;4.63;;;20.60;68.60;;;;;;5011987;28;20025;-66
2021/06/11 02:03:10;;;;;;;7.95;4.57;;;20.50;69.00;;;;;;5010766;28;20048;-66
2021/06/11 02:05:36;;;;;;;7.47;4.55;;;20.50;69.10;;;;;;5012443;28;20041;-66
2021/06/11 02:08:02;;;;;;;6.45;4.20;;;20.40;69.10;;;;;;5011525;28;20018;-66
2021/06/11 02:10:29;;;;;;;8.40;4.40;;;20.40;69.40;;;;;;5011141;28;20026;-68
2021/06/11 02:12:55;;;;;;;8.10;5.38;;;20.40;69.10;;;;;;5010710;28;20117;-68
2021/06/11 02:15:21;;;;;;;6.72;4.38;;;20.40;69.40;;;;;;5011875;28;20045;-65
2021/06/11 02:17:51;;;;;;;6.47;4.50;;;20.40;69.20;;;;;;5012302;28;20650;-65
2021/06/11 02:20:23;;;;;;;7.90;5.03;;;20.40;69.40;;;;;;5012195;28;20026;-65
2021/06/11 02:22:49;;;;;;;9.52;5.13;;;20.40;69.30;;;;;;5011365;28;20026;-65
2021/06/11 02:25:17;;;;;;;9.23;5.47;;;20.40;69.50;;;;;;5002267;28;20461;-65
2021/06/11 02:27:43;;;;;;;7.47;4.70;;;20.20;69.80;;;;;;5009253;28;20028;-66
2021/06/11 02:30:16;;;;;;;8.00;5.10;;;20.30;70.00;;;;;;5010169;28;20022;-64
2021/06/11 02:32:42;;;;;;;7.57;4.40;;;20.20;69.90;;;;;;5011813;28;20026;-66
2021/06/11 02:35:10;;;;;;;8.48;5.30;;;20.20;70.10;;;;;;5010673;28;20029;-67
2021/06/11 02:37:36;;;;;;;10.25;4.80;;;20.30;70.00;;;;;;5010115;28;20033;-68
2021/06/11 02:40:04;;;;;;;7.25;4.80;;;20.20;70.20;;;;;;5010655;28;20072;-69
2021/06/11 02:42:30;;;;;;;7.13;4.85;;;20.20;70.30;;;;;;5009424;28;66889;-66
2021/06/11 02:45:00;;;;;;;9.68;5.10;;;20.10;70.60;;;;;;5026777;28;20475;-66
2021/06/11 02:47:37;;;;;;;8.30;5.30;;;20.10;70.60;;;;;;5012812;28;20038;-66
2021/06/11 02:50:13;;;;;;;8.13;4.72;;;19.80;72.10;;;;;;5011340;28;20169;-68
2021/06/11 02:52:48;;;;;;;7.85;4.88;;;19.70;72.90;;;;;;5011933;28;20101;-67
2021/06/11 02:55:16;;;;;;;7.63;5.03;;;19.70;72.30;;;;;;5012537;28;20029;-66
2021/06/11 02:58:04;;;;;;;6.72;4.53;;;19.90;72.50;;;;;;5012558;28;20124;-68
2021/06/11 03:00:31;;;;;;;7.53;4.80;;;19.90;72.00;;;;;;5012065;28;20119;-68
2021/06/11 03:03:04;;;;;;;8.77;4.93;;;19.90;71.00;;;;;;5012097;28;20033;-66
2021/06/11 03:05:31;;;;;;;7.63;4.75;;;19.90;70.80;;;;;;5012151;28;20026;-67
2021/06/11 03:07:58;;;;;;;7.03;4.70;;;20.00;71.00;;;;;;5011336;28;20049;-65
2021/06/11 03:10:30;;;;;;;8.57;4.50;;;20.00;70.80;;;;;;5011043;28;20109;-66
2021/06/11 03:12:58;;;;;;;7.72;4.75;;;20.00;70.60;;;;;;5011684;28;20033;-69
2021/06/11 03:15:26;;;;;;;8.45;5.63;;;19.80;70.90;;;;;;5011677;28;20061;-66
2021/06/11 03:17:55;;;;;;;8.45;5.95;;;19.70;71.70;;;;;;5012210;28;20431;-70
2021/06/11 03:20:25;;;;;;;9.70;5.53;;;19.60;71.80;;;;;;5011004;28;20107;-64
2021/06/11 03:23:01;;;;;;;9.05;5.28;;;19.60;72.20;;;;;;5009836;28;20072;-69
2021/06/11 03:25:42;;;;;;;7.95;5.43;;;19.50;71.80;;;;;;5012151;28;20038;-68
2021/06/11 03:28:20;;;;;;;8.48;5.43;;;19.60;71.40;;;;;;5012067;28;20391;-66
2021/06/11 03:30:52;;;;;;;8.68;5.45;;;19.50;71.40;;;;;;5011585;28;20033;-66
2021/06/11 03:33:22;;;;;;;8.85;5.88;;;19.40;71.50;;;;;;5011538;28;20400;-66
2021/06/11 03:36:17;;;;;;;9.52;6.10;;;19.20;71.70;;;;;;5011558;28;20574;-65
2021/06/11 03:38:49;;;;;;;8.48;5.90;;;19.20;71.80;;;;;;5011463;28;20063;-70
2021/06/11 03:41:16;;;;;;;9.38;6.38;;;19.10;72.30;;;;;;5011650;28;20033;-66
2021/06/11 03:43:42;;;;;;;10.48;6.10;;;19.20;72.00;;;;;;5010853;28;20049;-67
2021/06/11 03:46:10;;;;;;;8.20;5.65;;;19.20;72.10;;;;;;5011683;28;20108;-66
2021/06/11 03:48:38;;;;;;;8.35;5.65;;;18.90;73.70;;;;;;5011056;28;20491;-65
2021/06/11 03:51:06;;;;;;;8.13;5.70;;;19.10;73.10;;;;;;5030843;28;20129;-68
2021/06/11 03:53:34;;;;;;;8.98;6.15;;;19.20;72.90;;;;;;5022139;28;20109;-69
2021/06/11 03:56:06;;;;;;;8.50;5.88;;;18.90;74.50;;;;;;5011007;28;20092;-65
2021/06/11 03:58:52;;;;;;;11.82;6.18;;;18.60;76.00;;;;;;5011050;28;20495;-65
2021/06/11 04:01:23;;;;;;;11.15;6.50;;;18.80;75.40;;;;;;5012249;28;20583;-65
2021/06/11 04:03:49;;;;;;;;;;;18.70;75.70;;;;;;5005321;28;20045;-68
2021/06/11 04:06:29;;;;;;;9.88;6.50;;;18.90;75.40;;;;;;5006823;28;19909;-65
2021/06/11 04:09:00;;;;;;;9.93;6.53;;;19.00;75.10;;;;;;5005438;28;20038;-68
2021/06/11 04:11:29;;;;;;;9.73;5.80;;;19.20;74.70;;;;;;5005349;28;20033;-67
2021/06/11 04:13:55;;;;;;;9.13;5.63;;;19.40;74.00;;;;;;5004902;28;20044;-66
2021/06/11 04:16:23;;;;;;;8.27;6.15;;;19.20;74.10;;;;;;5003661;28;20072;-67
2021/06/11 04:18:54;;;;;;;7.65;5.60;;;19.20;74.40;;;;;;5005019;28;20034;-69
2021/06/11 04:21:22;;;;;;;8.52;5.45;;;19.40;74.10;;;;;;5017111;28;20029;-65
2021/06/11 04:23:50;;;;;;;10.43;6.20;;;19.50;73.70;;;;;;5023115;28;20037;-67
2021/06/11 04:26:19;;;;;;;13.98;6.00;;;19.60;73.50;;;;;;5010672;28;20057;-66
2021/06/11 04:28:46;;;;;;;10.18;5.82;;;19.70;73.30;;;;;;5007312;28;20961;-66
2021/06/11 04:31:12;;;;;;;8.98;5.78;;;19.70;73.20;;;;;;5007241;28;20017;-68
2021/06/11 04:33:38;;;;;;;10.25;5.68;;;19.80;73.40;;;;;;5008085;28;20517;-68
2021/06/11 04:36:04;;;;;;;12.13;5.45;;;19.80;73.50;;;;;;5023484;28;21014;-69
2021/06/11 04:38:44;;;;;;;8.98;5.15;;;19.80;73.90;;;;;;5014039;28;20118;-70
2021/06/11 04:41:10;;;;;;;9.15;4.82;;;19.80;73.60;;;;;;5010443;28;20030;-70
2021/06/11 04:43:36;;;;;;;9.05;4.50;;;19.80;73.80;;;;;;5005760;28;20606;-68
2021/06/11 04:46:01;;;;;;;7.43;4.68;;;19.90;73.40;;;;;;5008929;28;20112;-65
2021/06/11 04:48:27;;;;;;;7.97;4.82;;;19.90;73.90;;;;;;5007980;28;20388;-66
2021/06/11 04:50:52;;;;;;;10.93;6.38;;;19.90;74.00;;;;;;5008474;28;20444;-68
2021/06/11 04:53:18;;;;;;;10.68;5.88;;;20.00;74.80;;;;;;5005416;28;20034;-66
2021/06/11 04:55:43;;;;;;;11.10;6.07;;;19.90;75.60;;;;;;5004696;28;20114;-67
2021/06/11 04:58:10;;;;;;;10.27;5.82;;;19.90;75.80;;;;;;5007373;28;20030;-68
2021/06/11 05:00:36;;;;;;;7.97;5.38;;;20.00;75.80;;;;;;5006354;28;20501;-67
2021/06/11 05:03:01;;;;;;;9.98;5.05;;;20.00;75.50;;;;;;5005486;28;20026;-68
2021/06/11 05:05:27;;;;;;;8.68;5.28;;;20.10;75.20;;;;;;5008273;28;20573;-68
2021/06/11 05:07:52;;;;;;;10.40;5.32;;;20.10;75.20;;;;;;5007134;28;20048;-69
2021/06/11 05:10:18;;;;;;;9.63;5.60;;;20.20;75.20;;;;;;5006507;28;20502;-67
2021/06/11 05:12:44;;;;;;;9.88;5.47;;;20.20;74.30;;;;;;5005791;28;20037;-69
2021/06/11 05:15:10;;;;;;;8.25;5.60;;;20.20;73.90;;;;;;5007862;28;20025;-66
2021/06/11 05:17:35;;;;;;;10.30;5.53;;;20.20;74.10;;;;;;5002085;28;20034;-70
2021/06/11 05:20:01;;;;;;;10.75;5.68;;;20.30;73.50;;;;;;5008366;28;20028;-69
2021/06/11 05:22:27;;;;;;;10.35;5.47;;;20.30;74.00;;;;;;5011134;28;20479;-66
2021/06/11 05:24:52;;;;;;;11.00;5.38;;;20.40;74.60;;;;;;5013395;28;20030;-69
2021/06/11 05:27:18;;;;;;;8.35;5.28;;;20.40;73.90;;;;;;5011590;28;20022;-66
2021/06/11 05:29:43;;;;;;;9.57;4.80;;;20.40;74.10;;;;;;5013676;28;20468;-66
2021/06/11 05:32:09;;;;;;;10.43;4.85;;;20.50;73.70;;;;;;5013813;28;20026;-67
2021/06/11 05:34:35;;;;;;;7.55;4.80;;;20.50;73.50;;;;;;5013235;28;20463;-68
2021/06/11 05:37:00;;;;;;;9.10;4.97;;;20.60;72.90;;;;;;5013240;28;20034;-67
2021/06/11 05:39:26;;;;;;;10.13;5.43;;;20.60;72.50;;;;;;5013959;28;20064;-65
2021/06/11 05:41:51;;;;;;;6.97;4.53;;;20.70;72.30;;;;;;5011920;28;20030;-67
2021/06/11 05:44:17;;;;;;;8.00;4.45;;;20.80;71.80;;;;;;5012230;28;20083;-66
2021/06/11 05:46:42;;;;;;;8.57;5.25;;;20.80;71.60;;;;;;5012490;28;20026;-66
2021/06/11 05:49:08;;;;;;;9.13;4.40;;;20.90;71.40;;;;;;5013109;28;20777;-67
2021/06/11 05:51:33;;;;;;;8.73;5.45;;;21.00;70.80;;;;;;5012474;28;20500;-66
2021/06/11 05:54:00;;;;;;;10.10;5.13;;;21.10;70.40;;;;;;5012111;28;20032;-66
2021/06/11 05:56:27;;;;;;;8.45;4.60;;;21.10;70.00;;;;;;5013259;28;20434;-68
2021/06/11 05:58:52;;;;;;;7.18;4.70;;;21.20;69.80;;;;;;5013549;28;20026;-67
2021/06/11 06:01:18;;;;;;;9.90;5.25;;;21.30;69.20;;;;;;5013311;28;20096;-69
2021/06/11 06:03:43;;;;;;;9.93;4.85;;;21.30;69.00;;;;;;5013220;28;20113;-66
2021/06/11 06:06:09;;;;;;;8.38;5.28;;;21.40;68.70;;;;;;5013471;28;20113;-67
2021/06/11 06:08:34;;;;;;;8.70;4.80;;;21.40;68.60;;;;;;5012191;28;20033;-69
2021/06/11 06:11:00;;;;;;;7.68;5.07;;;21.50;68.60;;;;;;5012105;28;20527;-66
2021/06/11 06:13:25;;;;;;;7.72;4.95;;;21.50;68.20;;;;;;5012537;28;20034;-66
2021/06/11 06:15:51;;;;;;;6.82;4.95;;;21.60;68.10;;;;;;5011984;28;20072;-67
2021/06/11 06:18:16;;;;;;;10.45;5.28;;;21.60;67.80;;;;;;5013182;28;20080;-66
2021/06/11 06:20:46;;;;;;;7.70;4.78;;;21.70;67.60;;;;;;5011424;28;20380;-66
2021/06/11 06:23:12;;;;;;;7.10;4.88;;;21.70;67.40;;;;;;5012696;28;20472;-67
2021/06/11 06:25:37;;;;;;;7.75;5.43;;;21.80;67.30;;;;;;5013175;28;20029;-69
2021/06/11 06:28:04;;;;;;;9.45;5.43;;;21.80;67.50;;;;;;5012625;28;20037;-67
2021/06/11 06:30:29;;;;;;;9.23;5.47;;;21.80;66.90;;;;;;5011898;28;20298;-67
2021/06/11 06:32:55;;;;;;;8.38;5.70;;;21.90;66.90;;;;;;5011492;28;20113;-68
2021/06/11 06:35:20;;;;;;;8.10;5.70;;;21.90;66.60;;;;;;5011272;28;20024;-68
2021/06/11 06:37:47;;;;;;;7.03;4.95;;;22.00;66.50;;;;;;5012720;28;20034;-68
2021/06/11 06:40:12;;;;;;;9.02;5.70;;;22.00;66.30;;;;;;5012755;28;20056;-66
2021/06/11 06:42:38;;;;;;;8.65;5.95;;;22.10;66.00;;;;;;5010339;28;20057;-69
2021/06/11 06:45:08;;;;;;;7.43;5.10;;;22.10;66.10;;;;;;5012803;28;20108;-66
2021/06/11 06:47:34;;;;;;;7.68;4.70;;;22.10;65.80;;;;;;5011184;28;20407;-66
2021/06/11 06:50:00;;;;;;;6.90;4.75;;;22.20;65.80;;;;;;5011565;28;20030;-67
2021/06/11 06:52:25;;;;;;;7.85;4.90;;;22.30;65.50;;;;;;5012435;28;20057;-69
2021/06/11 06:54:51;;;;;;;7.13;4.60;;;22.30;65.30;;;;;;5012513;28;20479;-67
2021/06/11 06:57:16;;;;;;;6.40;4.15;;;22.30;65.20;;;;;;5011938;28;20072;-67
2021/06/11 06:59:43;;;;;;;8.00;5.18;;;22.40;64.80;;;;;;5012463;28;20033;-67
2021/06/11 07:02:09;;;;;;;7.22;4.28;;;22.40;64.60;;;;;;5012272;28;20483;-64
2021/06/11 07:04:35;;;;;;;6.53;4.38;;;22.50;64.50;;;;;;5011657;28;20113;-64
2021/06/11 07:07:00;;;;;;;6.32;4.20;;;22.50;64.40;;;;;;5012370;28;20101;-65
2021/06/11 07:09:28;;;;;;;6.60;3.97;;;22.60;64.30;;;;;;5012159;28;20057;-66
2021/06/11 07:11:53;;;;;;;5.40;3.78;;;22.60;64.10;;;;;;5011637;28;20014;-65
2021/06/11 07:14:20;;;;;;;6.88;4.20;;;22.60;63.60;;;;;;5011746;28;20028;-65
2021/06/11 07:16:45;;;;;;;7.65;4.72;;;22.70;63.70;;;;;;5012190;28;20030;-65
2021/06/11 07:19:11;;;;;;;7.03;4.03;;;22.70;63.60;;;;;;5011715;28;20026;-64
2021/06/11 07:21:37;;;;;;;6.97;4.07;;;22.80;63.30;;;;;;5011957;28;20022;-65
2021/06/11 07:24:03;;;;;;;5.90;4.10;;;22.90;63.20;;;;;;5011791;28;20032;-66
2021/06/11 07:26:28;;;;;;;6.15;4.03;;;22.90;63.60;;;;;;5010112;28;20026;-67
2021/06/11 07:28:54;;;;;;;5.78;4.15;;;22.90;63.00;;;;;;5011873;28;20030;-64
2021/06/11 07:31:20;;;;;;;5.57;3.90;;;23.00;62.90;;;;;;5010864;28;20149;-64
2021/06/11 07:33:46;;;;;;;6.53;4.20;;;23.00;62.70;;;;;;5009844;28;20057;-65
2021/06/11 07:36:12;;;;;;;6.00;4.10;;;23.10;62.20;;;;;;5011857;28;20029;-65
2021/06/11 07:38:37;;;;;;;6.57;4.03;;;23.10;62.30;;;;;;5011182;28;20025;-67
2021/06/11 07:41:03;;;;;;;6.80;4.60;;;23.10;62.20;;;;;;5009875;28;20568;-64
2021/06/11 07:43:28;;;;;;;6.32;4.15;;;23.20;62.00;;;;;;5010007;28;20038;-65
2021/06/11 07:45:54;;;;;;;6.93;4.30;;;23.20;61.80;;;;;;5010430;28;20057;-65
2021/06/11 07:48:20;;;;;;;5.80;3.92;;;23.30;61.70;;;;;;5009804;28;20045;-67
2021/06/11 07:50:46;;;;;;;7.80;4.55;;;23.30;61.40;;;;;;5011695;28;20072;-65
2021/06/11 07:53:12;;;;;;;6.20;4.05;;;23.30;61.30;;;;;;5009836;28;20457;-65
2021/06/11 07:55:37;;;;;;;5.63;3.97;;;23.40;61.20;;;;;;5011149;28;20104;-65
2021/06/11 07:58:03;;;;;;;6.30;4.00;;;23.40;61.00;;;;;;5011596;28;20537;-65
2021/06/11 08:00:29;;;;;;;5.90;3.80;;;23.50;60.70;;;;;;5011392;28;20049;-66
2021/06/11 08:02:59;;;;;;;5.88;3.70;;;23.50;60.60;;;;;;5009243;28;20076;-65
2021/06/11 08:05:26;;;;;;;5.85;3.83;;;23.60;60.40;;;;;;5011430;28;20029;-65
2021/06/11 08:07:52;;;;;;;6.72;4.43;;;23.60;60.80;;;;;;5011396;28;20053;-65
2021/06/11 08:10:18;;;;;;;6.70;3.92;;;23.60;60.20;;;;;;5011032;28;20026;-65
2021/06/11 08:12:44;;;;;;;8.38;4.78;;;23.70;60.20;;;;;;5009903;28;20034;-65
2021/06/11 08:15:10;;;;;;;7.57;5.10;;;23.70;60.70;;;;;;5011438;28;20484;-64
2021/06/11 08:17:36;;;;;;;6.53;4.20;;;23.70;60.10;;;;;;5009759;28;20025;-65
2021/06/11 08:20:03;;;;;;;6.38;4.30;;;23.80;60.10;;;;;;5011319;28;20022;-66
2021/06/11 08:22:28;;;;;;;6.57;4.45;;;23.80;60.00;;;;;;5010754;28;20057;-65
2021/06/11 08:24:54;;;;;;;6.32;4.35;;;23.80;60.00;;;;;;5010819;28;20054;-65
2021/06/11 08:27:19;;;;;;;8.30;4.40;;;23.90;59.70;;;;;;5010459;28;20044;-65
2021/06/11 08:29:45;;;;;;;7.32;4.65;;;23.80;59.70;;;;;;5009942;28;20033;-66
2021/06/11 08:32:10;;;;;;;7.78;5.10;;;23.60;60.50;;;;;;5009454;28;20033;-67
2021/06/11 08:34:37;;;;;;;7.68;4.80;;;23.50;61.30;;;;;;5009449;28;20068;-68
2021/06/11 08:37:07;;;;;;;6.25;3.97;;;23.30;62.20;;;;;;5009649;28;20029;-67
2021/06/11 08:39:34;;;;;;;6.30;4.63;;;23.20;62.20;;;;;;5009591;28;20514;-66
2021/06/11 08:42:00;;;;;;;6.40;4.30;;;23.10;62.60;;;;;;5011002;28;20060;-65
2021/06/11 08:44:27;;;;;;;7.50;4.78;;;23.10;63.20;;;;;;5010636;28;20407;-65
2021/06/11 08:46:54;;;;;;;7.43;4.65;;;23.00;63.60;;;;;;5010527;28;20033;-67
2021/06/11 08:49:23;;;;;;;7.15;4.50;;;22.90;64.00;;;;;;5010891;28;20030;-65
2021/06/11 08:51:49;;;;;;;8.02;4.53;;;22.90;64.00;;;;;;5009924;28;20052;-65
2021/06/11 08:54:15;;;;;;;7.97;4.90;;;22.80;64.10;;;;;;5010253;28;20460;-65
2021/06/11 08:56:40;;;;;;;8.20;5.03;;;22.90;64.30;;;;;;5009695;28;20042;-65
2021/06/11 08:59:06;;;;;;;7.53;5.40;;;22.90;64.20;;;;;;5011068;28;20106;-65
2021/06/11 09:01:33;;;;;;;7.25;4.57;;;23.00;64.20;;;;;;5010218;28;20447;-66
2021/06/11 09:03:59;;;;;;;6.80;4.70;;;23.50;62.10;;;;;;5010814;28;20030;-66
2021/06/11 09:06:25;;;;;;;6.05;4.18;;;23.60;61.90;;;;;;5010958;28;20057;-66
2021/06/11 09:08:57;;;;;;;6.38;4.22;;;23.30;62.30;;;;;;5009217;28;20061;-67
2021/06/11 09:11:31;;;;;;;6.05;3.97;;;23.10;63.20;;;;;;5011169;28;20029;-66
2021/06/11 09:14:16;;;;;;;8.50;4.55;;;23.20;63.40;;;;;;5013993;28;20088;-65
2021/06/11 09:16:45;;;;;;;6.63;4.40;;;23.10;63.30;;;;;;5012855;28;20018;-65
2021/06/11 09:19:19;;;;;;;7.32;4.45;;;23.10;63.60;;;;;;5014186;28;20480;-65
2021/06/11 09:21:46;;;;;;;8.20;5.15;;;23.10;63.40;;;;;;5013008;28;20035;-65
2021/06/11 09:24:22;;;;;;;7.05;4.60;;;23.00;64.10;;;;;;5013376;28;20028;-66
2021/06/11 09:26:57;;;;;;;7.07;4.15;;;22.90;64.70;;;;;;5014195;28;20033;-64
2021/06/11 09:29:33;;;;;;;7.43;5.25;;;22.80;65.10;;;;;;5012881;28;20022;-64
2021/06/11 09:32:22;;;;;;;7.60;4.50;;;22.80;65.20;;;;;;5013729;28;20025;-66
2021/06/11 09:34:51;;;;;;;7.82;5.18;;;22.90;65.10;;;;;;5013715;28;20018;-66
2021/06/11 09:37:19;;;;;;;7.70;4.60;;;23.40;63.30;;;;;;5012470;28;20022;-65
2021/06/11 09:39:53;;;;;;;6.97;4.47;;;23.30;63.40;;;;;;5013661;28;20116;-65
2021/06/11 09:42:37;;;;;;;7.20;4.50;;;23.10;64.20;;;;;;5012525;28;20036;-64
2021/06/11 09:45:07;;;;;;;8.73;4.50;;;22.90;64.70;;;;;;5013975;28;20037;-65
2021/06/11 09:47:47;;;;;;;7.07;4.60;;;23.10;64.80;;;;;;5013350;28;20117;-65
2021/06/11 09:50:19;;;;;;;8.38;4.40;;;23.20;63.90;;;;;;5012923;28;20438;-66
2021/06/11 09:53:04;;;;;;;8.48;4.47;;;23.30;63.60;;;;;;5013557;28;20105;-66
2021/06/11 09:55:39;;;;;;;7.15;4.75;;;23.50;62.80;;;;;;5011969;28;20033;-65
2021/06/11 09:58:05;;;;;;;6.78;4.43;;;23.40;63.30;;;;;;5013929;28;20117;-66
2021/06/11 10:00:32;;;;;;;7.13;3.92;;;23.70;62.30;;;;;;5013569;28;20097;-66
2021/06/11 10:02:59;;;;;;;7.53;4.15;;;23.70;62.30;;;;;;5011325;28;20022;-65
2021/06/11 10:05:28;;;;;;;6.47;4.13;;;24.10;61.20;;;;;;5013417;28;20041;-66
2021/06/11 10:07:55;;;;;;;7.78;4.28;;;24.30;59.80;;;;;;5012080;28;20026;-66
2021/06/11 10:10:21;;;;;;;6.95;4.40;;;24.00;60.80;;;;;;5011634;28;20060;-65
2021/06/11 10:12:48;;;;;;;6.95;4.50;;;24.00;61.20;;;;;;5013109;28;20391;-66
2021/06/11 10:15:15;;;;;;;8.05;4.25;;;24.10;61.00;;;;;;5012003;28;20022;-68
2021/06/11 10:17:41;;;;;;;7.05;4.05;;;24.60;59.50;;;;;;5011665;28;20022;-67
2021/06/11 10:20:13;;;;;;;6.20;3.72;;;24.50;58.90;;;;;;5013136;28;20156;-65
2021/06/11 10:22:38;;;;;;;6.25;3.67;;;24.60;59.00;;;;;;5010981;28;20022;-65
2021/06/11 10:25:11;;;;;;;6.63;3.75;;;25.00;57.50;;;;;;5010839;28;20507;-63
2021/06/11 10:27:38;;;;;;;6.00;3.70;;;25.20;57.00;;;;;;5011730;28;20022;-65
2021/06/11 10:30:04;;;;;;;5.70;3.38;;;25.40;56.40;;;;;;5011794;28;20060;-65
2021/06/11 10:32:30;;;;;;;6.22;3.70;;;25.40;56.10;;;;;;5012256;28;20061;-66
2021/06/11 10:34:56;;;;;;;6.25;3.10;;;25.50;56.00;;;;;;5011540;28;20064;-64
2021/06/11 10:37:31;;;;;;;5.68;3.58;;;25.50;56.00;;;;;;5012646;28;20376;-65
2021/06/11 10:40:13;;;;;;;5.65;3.30;;;25.50;55.80;;;;;;5012434;28;20014;-65
2021/06/11 10:42:39;;;;;;;5.65;3.28;;;25.50;55.70;;;;;;5010901;28;20060;-68
2021/06/11 10:45:05;;;;;;;5.53;2.92;;;25.50;55.70;;;;;;5011232;28;20064;-65
2021/06/11 10:47:33;;;;;;;4.80;2.90;;;25.50;55.70;;;;;;5011411;28;20022;-64
2021/06/11 10:49:59;;;;;;;6.30;2.80;;;25.50;55.80;;;;;;5012692;28;20395;-65
2021/06/11 10:52:35;;;;;;;5.05;3.13;;;24.90;57.90;;;;;;5010987;28;20113;-68
2021/06/11 10:55:13;;;;;;;6.22;2.90;;;24.80;58.00;;;;;;5012472;28;20037;-65
2021/06/11 10:57:39;;;;;;;4.95;2.78;;;25.20;56.90;;;;;;5011266;28;20113;-65
2021/06/11 11:00:26;;;;;;;5.20;2.90;;;25.40;56.50;;;;;;5010833;28;20107;-65
2021/06/11 11:03:00;;;;;;;5.00;2.97;;;25.00;57.00;;;;;;5011940;28;20022;-67
2021/06/11 11:05:31;;;;;;;5.03;2.90;;;25.20;57.00;;;;;;5012966;28;20431;-63
2021/06/11 11:07:58;;;;;;;6.03;3.00;;;25.20;57.40;;;;;;5011844;28;20022;-67
2021/06/11 11:10:42;;;;;;;5.45;3.17;;;25.30;56.90;;;;;;5012400;28;20033;-65
2021/06/11 11:13:11;;;;;;;4.72;2.80;;;25.50;56.60;;;;;;5010779;28;20160;-65
2021/06/11 11:15:45;;;;;;;5.75;2.85;;;25.60;56.30;;;;;;5011732;28;20479;-67
2021/06/11 11:18:22;;;;;;;4.97;2.78;;;25.60;56.40;;;;;;5012036;28;20084;-66
2021/06/11 11:20:49;;;;;;;5.30;3.00;;;25.70;56.20;;;;;;5010958;28;20038;-66
2021/06/11 11:23:20;;;;;;;4.97;2.63;;;25.60;56.10;;;;;;5009776;28;20534;-64
2021/06/11 11:25:47;;;;;;;5.00;2.70;;;25.50;56.30;;;;;;5012056;28;20065;-65
2021/06/11 11:28:14;;;;;;;5.18;2.67;;;25.00;57.80;;;;;;5010787;28;20030;-67
2021/06/11 11:30:42;;;;;;;4.90;2.80;;;24.30;60.50;;;;;;5011499;28;20118;-65
2021/06/11 11:33:09;;;;;;;4.70;2.42;;;24.30;60.90;;;;;;5010502;28;20033;-64
2021/06/11 11:35:37;;;;;;;5.60;2.80;;;24.70;59.50;;;;;;5010584;28;20032;-65
2021/06/11 11:38:07;;;;;;;5.60;3.13;;;24.70;59.60;;;;;;5009636;28;20026;-65
2021/06/11 11:40:33;;;;;;;4.35;2.67;;;24.40;60.70;;;;;;5011699;28;20022;-66
2021/06/11 11:43:00;;;;;;;4.40;2.40;;;24.10;61.60;;;;;;5010105;28;20037;-65
2021/06/11 11:45:27;;;;;;;5.65;3.20;;;23.80;62.70;;;;;;5011353;28;20033;-66
2021/06/11 11:47:55;;;;;;;5.03;2.90;;;23.70;63.20;;;;;;5010380;28;20033;-65
2021/06/11 11:50:21;;;;;;;5.80;3.25;;;23.60;63.40;;;;;;5011829;28;20026;-66
2021/06/11 11:52:47;;;;;;;5.10;2.78;;;23.50;63.80;;;;;;5010820;28;20407;-66
2021/06/11 11:55:14;;;;;;;5.65;3.00;;;23.50;63.90;;;;;;5010136;28;20024;-66
2021/06/11 11:57:41;;;;;;;5.20;2.78;;;23.50;64.00;;;;;;5010268;28;20068;-65
2021/06/11 12:00:08;;;;;;;5.25;2.92;;;23.50;64.70;;;;;;5009848;28;20033;-65
2021/06/11 12:02:34;;;;;;;5.20;2.78;;;23.50;64.10;;;;;;5009756;28;20029;-65
2021/06/11 12:05:00;;;;;;;5.18;2.92;;;23.50;64.10;;;;;;5011511;28;20022;-65
2021/06/11 12:07:25;;;;;;;4.40;2.78;;;23.50;64.20;;;;;;5009713;28;20396;-67
2021/06/11 12:09:53;;;;;;;6.25;3.17;;;23.50;64.30;;;;;;5009997;28;20037;-66
2021/06/11 12:12:19;;;;;;;5.22;3.20;;;23.50;64.40;;;;;;5011432;28;20058;-66
2021/06/11 12:14:44;;;;;;;5.90;2.90;;;23.50;64.40;;;;;;5010639;28;20530;-65
2021/06/11 12:17:10;;;;;;;5.03;2.95;;;23.50;64.60;;;;;;5010131;28;20156;-66
2021/06/11 12:19:36;;;;;;;4.95;3.13;;;23.50;64.70;;;;;;5010193;28;20415;-67
2021/06/11 12:22:01;;;;;;;5.35;3.20;;;23.40;64.70;;;;;;5009603;28;20400;-65
2021/06/11 12:24:27;;;;;;;4.78;3.00;;;23.40;65.60;;;;;;5009586;28;20026;-65
2021/06/11 12:26:52;;;;;;;4.68;2.92;;;23.30;65.10;;;;;;5011307;28;20105;-66
2021/06/11 12:29:19;;;;;;;5.00;3.00;;;23.40;65.00;;;;;;5010768;28;20029;-63
2021/06/11 12:31:45;;;;;;;4.88;3.08;;;23.40;64.90;;;;;;5011370;28;20475;-64
2021/06/11 12:34:10;;;;;;;4.78;2.83;;;23.40;64.80;;;;;;5010905;28;20041;-68
2021/06/11 12:36:36;;;;;;;8.43;3.33;;;23.40;64.80;;;;;;5008823;28;20030;-65
2021/06/11 12:39:02;;;;;;;5.65;3.00;;;23.40;65.10;;;;;;5011125;28;20037;-66
2021/06/11 12:41:32;;;;;;;4.57;2.70;;;23.40;65.00;;;;;;5011059;28;20052;-66
2021/06/11 12:44:18;;;;;;;5.07;3.10;;;23.50;64.90;;;;;;5008939;28;20034;-66
2021/06/11 12:46:53;;;;;;;5.40;3.10;;;23.40;64.90;;;;;;5010748;28;20116;-66
2021/06/11 12:49:20;;;;;;;4.88;2.85;;;23.40;65.10;;;;;;5014972;28;20105;-65